This is the latest recevied weather packets stored in our database for station/object NG7N. If no packets are shown the sender has not sent any weather packets the latest 1 day(s).
| Time | Temp. | Humidity | Pressure | Rain* | Wind** | Luminosity | Snow |
|---|---|---|---|---|---|---|---|
| 1836274297 | 16.67° C | 72% | 1013.5 hPa | 0 mm | 0 m/s | - | - |
| 1778056768 | 11.11° C | 89% | 1017.3 hPa | 0 mm | 1.34 m/s, 224° | - | - |
| 1778056167 | 11.67° C | 89% | 1017.2 hPa | 0 mm | 1.34 m/s, 225° | - | - |
| 1778054368 | 11.67° C | 88% | 1017.1 hPa | 0 mm | 1.34 m/s, 186° | - | - |
| 1778054067 | 11.67° C | 88% | 1017.1 hPa | 0 mm | 1.34 m/s, 170° | - | - |
| 1778053769 | 11.67° C | 88% | 1017.1 hPa | 0 mm | 0.89 m/s, 179° | - | - |
| 1778053499 | 11.67° C | 87% | 1016.8 hPa | 0 mm | 0.45 m/s, 221° | - | - |
| 1778053468 | 11.67° C | 87% | 1016.8 hPa | 0 mm | 0.45 m/s, 221° | - | - |
| 1778053168 | 12.22° C | 87% | 1016.8 hPa | 0 mm | 0.89 m/s, 213° | - | - |
| 1778051968 | 12.22° C | 86% | 1016.8 hPa | 0 mm | 0.45 m/s, 224° | - | - |
| 1778051368 | 12.22° C | 86% | 1016.9 hPa | 0 mm | 0.89 m/s, 214° | - | - |
| 1778051068 | 12.22° C | 86% | 1016.9 hPa | 0 mm | 0.89 m/s, 204° | - | - |
| 1778050468 | 12.78° C | 86% | 1016.7 hPa | 0 mm | 1.34 m/s, 238° | - | - |
| 1778050168 | 12.78° C | 85% | 1016.7 hPa | 0 mm | 0.89 m/s, 231° | - | - |
| 1778049568 | 12.78° C | 85% | 1016.7 hPa | 0 mm | 0.89 m/s, 199° | - | - |
| 1778049268 | 12.78° C | 85% | 1016.7 hPa | 0 mm | 0.89 m/s, 203° | - | - |
| 1778048367 | 13.33° C | 85% | 1016.6 hPa | 0 mm | 0.45 m/s, 196° | - | - |
| 1778047768 | 13.33° C | 85% | 1016.2 hPa | 0 mm | 1.34 m/s, 231° | - | - |
| 1778045668 | 13.89° C | 83% | 1016.1 hPa | 0 mm | 1.34 m/s, 205° | - | - |
| 1778044167 | 14.44° C | 82% | 1015.8 hPa | 0 mm | 0.89 m/s, 192° | - | - |
| 1778043268 | 14.44° C | 82% | 1015.7 hPa | 0 mm | 0.45 m/s, 188° | - | - |
| 1778042967 | 14.44° C | 82% | 1015.7 hPa | 0 mm | 0.89 m/s, 175° | - | - |
| 1778042368 | 15° C | 81% | 1015.7 hPa | 0 mm | 0.89 m/s, 184° | - | - |
| 1778040867 | 15° C | 81% | 1015.7 hPa | 0 mm | 1.34 m/s, 169° | - | - |
| 1778039968 | 15° C | 80% | 1015.6 hPa | 0 mm | 0.45 m/s, 163° | - | - |
* Rain latest hour (hover to see other rain measurements)
** Current wind speed in m/s (hover to see current wind gust speed)